createdAt,value
2022-09-14T00:00:02.599Z,983.47
2022-09-14T00:01:24.291Z,983.41
2022-09-14T00:02:02.706Z,983.38
2022-09-14T00:03:02.716Z,983.38
2022-09-14T00:04:02.551Z,983.36
2022-09-14T00:05:02.863Z,983.38
2022-09-14T00:06:02.507Z,983.39
2022-09-14T00:07:02.533Z,983.39
2022-09-14T00:08:02.484Z,983.37
2022-09-14T00:09:02.510Z,983.36
2022-09-14T00:10:02.584Z,983.37
2022-09-14T00:11:02.496Z,983.37
2022-09-14T00:12:02.448Z,983.40
2022-09-14T00:13:02.594Z,983.39
2022-09-14T00:14:02.470Z,983.42
2022-09-14T00:15:02.601Z,983.43
2022-09-14T00:16:02.467Z,983.43
2022-09-14T00:17:02.460Z,983.44
2022-09-14T00:18:02.440Z,983.40
2022-09-14T00:19:02.414Z,983.40
2022-09-14T00:20:02.505Z,983.41
2022-09-14T00:21:02.404Z,983.42
2022-09-14T00:22:02.401Z,983.41
2022-09-14T00:23:02.380Z,983.43
2022-09-14T00:24:02.390Z,983.41
2022-09-14T00:25:02.527Z,983.36
2022-09-14T00:26:02.390Z,983.36
2022-09-14T00:27:02.379Z,983.32
2022-09-14T00:28:02.405Z,983.27
2022-09-14T00:29:02.425Z,983.27
2022-09-14T00:30:02.503Z,983.23
2022-09-14T00:31:02.533Z,983.20
2022-09-14T00:32:02.395Z,983.18
2022-09-14T00:33:02.422Z,983.17
2022-09-14T00:34:02.326Z,983.16
2022-09-14T00:35:02.519Z,983.14
2022-09-14T00:36:02.342Z,983.09
2022-09-14T00:37:02.326Z,983.11
2022-09-14T00:38:02.323Z,983.11
2022-09-14T00:39:02.308Z,983.11
2022-09-14T00:40:02.370Z,983.16
2022-09-14T00:41:02.294Z,983.18
2022-09-14T00:42:02.305Z,983.13
2022-09-14T00:43:02.281Z,983.17
2022-09-14T00:44:02.290Z,983.15
2022-09-14T00:45:02.432Z,983.11
2022-09-14T00:46:02.329Z,983.08
2022-09-14T00:47:02.259Z,983.06
2022-09-14T00:48:02.252Z,983.07
2022-09-14T00:49:02.308Z,983.05
2022-09-14T00:50:02.417Z,983.06
2022-09-14T00:51:02.256Z,983.04
2022-09-14T00:52:02.243Z,983.07
2022-09-14T00:53:02.248Z,983.03
2022-09-14T00:54:02.296Z,983.09
2022-09-14T00:55:02.345Z,983.07
2022-09-14T00:56:02.234Z,983.10
2022-09-14T00:57:02.210Z,983.07
2022-09-14T00:58:02.222Z,983.13
2022-09-14T00:59:02.192Z,983.13
2022-09-14T01:00:02.278Z,983.11
2022-09-14T01:01:02.532Z,983.11
2022-09-14T01:02:02.242Z,983.13
2022-09-14T01:03:02.208Z,983.15
2022-09-14T01:04:02.176Z,983.08
2022-09-14T01:05:02.199Z,983.06
2022-09-14T01:06:02.159Z,983.07
2022-09-14T01:07:02.159Z,983.05
2022-09-14T01:08:02.182Z,983.08
2022-09-14T01:09:02.155Z,983.06
2022-09-14T01:10:02.133Z,983.07
2022-09-14T01:11:02.119Z,983.12
2022-09-14T01:12:02.136Z,983.09
2022-09-14T01:13:02.117Z,983.12
2022-09-14T01:14:02.105Z,983.12
2022-09-14T01:15:02.264Z,983.12
2022-09-14T01:16:02.167Z,983.15
2022-09-14T01:17:02.095Z,983.13
2022-09-14T01:18:02.114Z,983.16
2022-09-14T01:19:02.109Z,983.13
2022-09-14T01:20:02.083Z,983.14
2022-09-14T01:21:02.099Z,983.15
2022-09-14T01:22:02.083Z,983.11
2022-09-14T01:23:02.085Z,983.11
2022-09-14T01:24:02.063Z,983.11
2022-09-14T01:25:02.081Z,983.06
2022-09-14T01:26:02.048Z,983.10
2022-09-14T01:27:02.057Z,983.08
2022-09-14T01:28:02.068Z,983.05
2022-09-14T01:29:02.027Z,983.07
2022-09-14T01:30:02.169Z,983.09
2022-09-14T01:31:02.028Z,983.07
2022-09-14T01:32:02.121Z,983.10
2022-09-14T01:33:02.033Z,983.12
2022-09-14T01:34:02.010Z,983.12
2022-09-14T01:35:02.159Z,983.13
2022-09-14T01:36:01.984Z,983.11
2022-09-14T01:37:02.072Z,983.11
2022-09-14T01:38:02.020Z,983.10
2022-09-14T01:39:01.972Z,983.09
2022-09-14T01:40:02.143Z,983.10
2022-09-14T01:41:01.998Z,983.06
2022-09-14T01:42:01.964Z,983.05
2022-09-14T01:43:01.957Z,983.03
2022-09-14T01:44:01.979Z,982.96
2022-09-14T01:45:02.107Z,982.99
2022-09-14T01:46:02.013Z,982.97
2022-09-14T01:47:01.933Z,982.98
2022-09-14T01:48:02.312Z,982.96
2022-09-14T01:49:02.280Z,982.94
2022-09-14T01:50:02.309Z,982.93
2022-09-14T01:51:02.076Z,982.94
2022-09-14T01:52:02.318Z,982.91
2022-09-14T01:53:02.218Z,982.94
2022-09-14T01:54:02.259Z,982.94
2022-09-14T01:55:02.257Z,982.91
2022-09-14T01:56:02.385Z,982.94
2022-09-14T01:57:02.159Z,982.97
2022-09-14T01:58:01.880Z,982.90
2022-09-14T01:59:02.401Z,982.91
2022-09-14T02:00:02.162Z,982.87
2022-09-14T02:01:02.225Z,982.89
2022-09-14T02:02:02.179Z,982.89
2022-09-14T02:03:01.963Z,982.91
2022-09-14T02:04:01.876Z,982.90
2022-09-14T02:05:02.231Z,982.87
2022-09-14T02:06:02.141Z,982.89
2022-09-14T02:07:02.215Z,982.86
2022-09-14T02:08:02.321Z,982.89
2022-09-14T02:09:02.131Z,982.90
2022-09-14T02:10:02.207Z,982.88
2022-09-14T02:11:02.331Z,982.85
2022-09-14T02:12:02.091Z,982.86
2022-09-14T02:13:01.789Z,982.87
2022-09-14T02:14:02.183Z,982.91
2022-09-14T02:15:02.057Z,982.90
2022-09-14T02:16:02.102Z,982.92
2022-09-14T02:17:02.077Z,982.94
2022-09-14T02:18:01.759Z,982.98
2022-09-14T02:19:02.260Z,982.92
2022-09-14T02:20:02.104Z,982.94
2022-09-14T02:21:02.040Z,982.90
2022-09-14T02:22:02.024Z,982.91
2022-09-14T02:23:02.023Z,982.86
2022-09-14T02:24:02.288Z,982.84
2022-09-14T02:25:01.999Z,982.86
2022-09-14T02:26:02.072Z,982.84
2022-09-14T02:27:02.030Z,982.86
2022-09-14T02:28:02.116Z,982.85
2022-09-14T02:29:02.225Z,982.82
2022-09-14T02:30:02.018Z,982.76
2022-09-14T02:31:02.053Z,982.73
2022-09-14T02:32:01.950Z,982.65
2022-09-14T02:33:02.048Z,982.64
2022-09-14T02:34:01.665Z,982.61
2022-09-14T02:35:01.945Z,982.55
2022-09-14T02:36:01.926Z,982.50
2022-09-14T02:37:01.964Z,982.51
2022-09-14T02:38:01.615Z,982.53
2022-09-14T02:39:01.933Z,982.50
2022-09-14T02:40:02.060Z,982.50
2022-09-14T02:41:02.011Z,982.52
2022-09-14T02:42:01.637Z,982.48
2022-09-14T02:43:01.882Z,982.49
2022-09-14T02:44:02.417Z,982.49
2022-09-14T02:45:01.744Z,982.49
2022-09-14T02:46:01.935Z,982.50
2022-09-14T02:47:02.052Z,982.48
2022-09-14T02:48:01.963Z,982.51
2022-09-14T02:49:01.659Z,982.49
2022-09-14T02:50:01.929Z,982.51
2022-09-14T02:51:01.776Z,982.49
2022-09-14T02:52:01.927Z,982.48
2022-09-14T02:53:01.928Z,982.46
2022-09-14T02:54:01.671Z,982.50
2022-09-14T02:55:01.819Z,982.46
2022-09-14T02:56:01.935Z,982.44
2022-09-14T02:57:01.875Z,982.46
2022-09-14T02:58:01.929Z,982.45
2022-09-14T02:59:01.876Z,982.43
2022-09-14T03:00:02.002Z,982.42
2022-09-14T03:01:01.861Z,982.43
2022-09-14T03:02:01.551Z,982.36
2022-09-14T03:03:01.756Z,982.40
2022-09-14T03:04:01.727Z,982.35
2022-09-14T03:05:01.923Z,982.37
2022-09-14T03:06:01.820Z,982.39
2022-09-14T03:07:01.787Z,982.38
2022-09-14T03:08:01.713Z,982.34
2022-09-14T03:09:01.751Z,982.32
2022-09-14T03:10:02.045Z,982.30
2022-09-14T03:11:01.907Z,982.32
2022-09-14T03:12:01.818Z,982.27
2022-09-14T03:13:01.943Z,982.29
2022-09-14T03:14:01.733Z,982.25
2022-09-14T03:15:01.676Z,982.23
2022-09-14T03:16:01.966Z,982.27
2022-09-14T03:17:01.636Z,982.28
2022-09-14T03:18:01.444Z,982.28
2022-09-14T03:19:01.659Z,982.31
2022-09-14T03:20:01.799Z,982.35
2022-09-14T03:21:01.913Z,982.35
2022-09-14T03:22:01.780Z,982.34
2022-09-14T03:23:01.886Z,982.37
2022-09-14T03:24:01.734Z,982.36
2022-09-14T03:25:01.359Z,982.37
2022-09-14T03:26:01.758Z,982.40
2022-09-14T03:27:01.824Z,982.39
2022-09-14T03:28:01.708Z,982.38
2022-09-14T03:29:01.720Z,982.34
2022-09-14T03:30:01.742Z,982.28
2022-09-14T03:31:01.583Z,982.23
2022-09-14T03:32:01.669Z,982.20
2022-09-14T03:33:01.612Z,982.20
2022-09-14T03:34:01.591Z,982.17
2022-09-14T03:35:01.627Z,982.19
2022-09-14T03:36:01.687Z,982.18
2022-09-14T03:37:01.765Z,982.16
2022-09-14T03:38:01.622Z,982.16
2022-09-14T03:39:01.600Z,982.17
2022-09-14T03:40:01.685Z,982.21
2022-09-14T03:41:01.794Z,982.20
2022-09-14T03:42:01.800Z,982.20
2022-09-14T03:43:01.342Z,982.16
2022-09-14T03:44:01.522Z,982.13
2022-09-14T03:45:01.636Z,982.10
2022-09-14T03:46:01.527Z,982.09
2022-09-14T03:47:01.793Z,982.13
2022-09-14T03:48:01.896Z,982.12
2022-09-14T03:49:01.628Z,982.14
2022-09-14T03:50:01.210Z,982.16
2022-09-14T03:51:01.497Z,982.18
2022-09-14T03:52:01.527Z,982.18
2022-09-14T03:53:01.480Z,982.19
2022-09-14T03:54:01.503Z,982.18
2022-09-14T03:55:01.662Z,982.15
2022-09-14T03:56:01.449Z,982.17
2022-09-14T03:57:01.232Z,982.12
2022-09-14T03:58:01.354Z,982.09
2022-09-14T03:59:01.596Z,982.06
2022-09-14T04:00:01.149Z,982.03
2022-09-14T04:01:01.527Z,982.06
2022-09-14T04:02:01.574Z,982.06
2022-09-14T04:03:01.828Z,982.05
2022-09-14T04:04:01.503Z,982.09
2022-09-14T04:05:01.550Z,982.07
2022-09-14T04:06:01.115Z,982.07
2022-09-14T04:07:01.131Z,982.04
2022-09-14T04:08:01.414Z,982.01
2022-09-14T04:09:01.586Z,982.02
2022-09-14T04:10:01.576Z,982.01
2022-09-14T04:11:01.354Z,981.99
2022-09-14T04:12:01.520Z,981.98
2022-09-14T04:13:01.570Z,981.98
2022-09-14T04:14:01.453Z,981.98
2022-09-14T04:15:01.441Z,981.96
2022-09-14T04:16:01.216Z,981.96
2022-09-14T04:17:01.095Z,981.94
2022-09-14T04:18:01.729Z,981.94
2022-09-14T04:19:01.431Z,981.93
2022-09-14T04:20:01.364Z,981.94
2022-09-14T04:21:04.607Z,981.92
2022-09-14T04:22:01.427Z,981.94
2022-09-14T04:23:01.141Z,981.95
2022-09-14T04:24:14.697Z,981.94
2022-09-14T04:25:01.392Z,981.95
2022-09-14T04:26:01.254Z,981.95
2022-09-14T04:27:01.418Z,981.99
2022-09-14T04:28:19.627Z,981.96
2022-09-14T04:29:01.235Z,981.96
2022-09-14T04:30:00.989Z,981.98
2022-09-14T04:31:01.485Z,982.00
2022-09-14T04:32:01.422Z,981.98
2022-09-14T04:33:01.268Z,981.99
2022-09-14T04:34:01.456Z,981.96
2022-09-14T04:35:01.498Z,981.96
2022-09-14T04:36:01.227Z,981.93
2022-09-14T04:37:01.285Z,981.88
2022-09-14T04:38:00.972Z,981.90
2022-09-14T04:39:00.924Z,981.88
2022-09-14T04:40:00.954Z,981.90
2022-09-14T04:41:00.994Z,981.88
2022-09-14T04:42:00.914Z,981.89
2022-09-14T04:43:00.898Z,981.87
2022-09-14T04:44:00.899Z,981.85
2022-09-14T04:45:00.889Z,981.86
2022-09-14T04:46:00.947Z,981.83
2022-09-14T04:47:00.923Z,981.85
2022-09-14T04:48:00.884Z,981.85
2022-09-14T04:49:00.860Z,981.88
2022-09-14T04:50:00.858Z,981.86
2022-09-14T04:51:00.862Z,981.84
2022-09-14T04:52:00.957Z,981.89
2022-09-14T04:53:00.849Z,981.85
2022-09-14T04:54:00.845Z,981.84
2022-09-14T04:55:00.832Z,981.84
2022-09-14T04:56:00.824Z,981.85
2022-09-14T04:57:00.817Z,981.85
2022-09-14T04:58:00.814Z,981.84
2022-09-14T04:59:00.812Z,981.87
2022-09-14T05:00:00.827Z,981.89
2022-09-14T05:01:00.807Z,981.89
2022-09-14T05:02:00.893Z,981.90
2022-09-14T05:03:00.856Z,981.89
2022-09-14T05:04:00.791Z,981.91
2022-09-14T05:05:00.768Z,981.91
2022-09-14T05:06:00.769Z,981.91
2022-09-14T05:07:00.771Z,981.92
2022-09-14T05:08:00.790Z,981.92
2022-09-14T05:09:00.757Z,981.90
2022-09-14T05:10:00.756Z,981.90
2022-09-14T05:11:00.746Z,981.89
2022-09-14T05:12:00.749Z,981.90
2022-09-14T05:13:00.727Z,981.88
2022-09-14T05:14:00.721Z,981.86
2022-09-14T05:15:00.717Z,981.88
2022-09-14T05:16:00.756Z,981.94
2022-09-14T05:17:00.718Z,981.95
2022-09-14T05:18:00.708Z,981.95
2022-09-14T05:19:00.720Z,981.95
2022-09-14T05:20:00.690Z,981.97
2022-09-14T05:21:03.996Z,981.96
2022-09-14T05:22:00.686Z,981.94
2022-09-14T05:23:00.673Z,981.96
2022-09-14T05:24:00.775Z,981.96
2022-09-14T05:25:00.650Z,981.93
2022-09-14T05:26:00.658Z,981.93
2022-09-14T05:27:02.311Z,981.93
2022-09-14T05:28:00.639Z,981.91
2022-09-14T05:29:00.833Z,981.92
2022-09-14T05:30:00.641Z,981.87
2022-09-14T05:31:00.673Z,981.90
2022-09-14T05:32:00.626Z,981.89
2022-09-14T05:33:00.725Z,981.89
2022-09-14T05:34:00.602Z,981.90
2022-09-14T05:35:00.796Z,981.84
2022-09-14T05:36:00.752Z,981.87
2022-09-14T05:37:00.593Z,981.85
2022-09-14T05:38:00.586Z,981.84
2022-09-14T05:39:00.575Z,981.81
2022-09-14T05:40:00.969Z,981.77
2022-09-14T05:41:00.749Z,981.80
2022-09-14T05:42:00.717Z,981.79
2022-09-14T05:43:00.703Z,981.76
2022-09-14T05:44:00.562Z,981.80
2022-09-14T05:45:00.554Z,981.78
2022-09-14T05:46:00.850Z,981.78
2022-09-14T05:47:00.863Z,981.78
2022-09-14T05:48:00.818Z,981.79
2022-09-14T05:49:00.525Z,981.76
2022-09-14T05:50:00.501Z,981.76
2022-09-14T05:51:00.496Z,981.78
2022-09-14T05:52:00.512Z,981.78
2022-09-14T05:53:00.495Z,981.80
2022-09-14T05:54:00.495Z,981.82
2022-09-14T05:55:01.655Z,981.77
2022-09-14T05:56:00.741Z,981.82
2022-09-14T05:57:00.468Z,981.78
2022-09-14T05:58:00.458Z,981.78
2022-09-14T05:59:00.570Z,981.81
2022-09-14T06:00:00.600Z,981.79
2022-09-14T06:01:00.466Z,981.80
2022-09-14T06:02:00.526Z,981.79
2022-09-14T06:03:00.429Z,981.78
2022-09-14T06:04:00.504Z,981.79
2022-09-14T06:05:00.503Z,981.81
2022-09-14T06:06:00.423Z,981.79
2022-09-14T06:07:17.948Z,981.77
2022-09-14T06:08:00.395Z,981.77
2022-09-14T06:09:00.393Z,981.74
2022-09-14T06:10:00.401Z,981.75
2022-09-14T06:11:00.378Z,981.73
2022-09-14T06:12:00.420Z,981.72
2022-09-14T06:13:00.373Z,981.70
2022-09-14T06:14:00.364Z,981.72
2022-09-14T06:15:00.369Z,981.70
2022-09-14T06:16:00.355Z,981.71
2022-09-14T06:17:00.350Z,981.70
2022-09-14T06:18:00.347Z,981.68
2022-09-14T06:19:00.343Z,981.71
2022-09-14T06:20:04.367Z,981.68
2022-09-14T06:21:00.335Z,981.69
2022-09-14T06:22:01.191Z,981.64
2022-09-14T06:23:00.931Z,981.67
2022-09-14T06:24:00.315Z,981.63
2022-09-14T06:25:00.306Z,981.65
2022-09-14T06:26:00.303Z,981.67
2022-09-14T06:27:00.307Z,981.64
2022-09-14T06:28:00.399Z,981.68
2022-09-14T06:29:00.288Z,981.67
2022-09-14T06:30:00.271Z,981.68
2022-09-14T06:31:00.264Z,981.66
2022-09-14T06:32:00.280Z,981.66
2022-09-14T06:33:00.258Z,981.65
2022-09-14T06:34:00.251Z,981.64
2022-09-14T06:35:00.240Z,981.66
2022-09-14T06:36:00.255Z,981.62
2022-09-14T06:37:00.258Z,981.68
2022-09-14T06:38:00.226Z,981.65
2022-09-14T06:39:00.271Z,981.62
2022-09-14T06:40:00.310Z,981.60
2022-09-14T06:41:00.378Z,981.65
2022-09-14T06:42:00.340Z,981.61
2022-09-14T06:43:00.189Z,981.61
2022-09-14T06:44:00.217Z,981.60
2022-09-14T06:45:00.347Z,981.63
2022-09-14T06:46:00.180Z,981.62
2022-09-14T06:47:00.201Z,981.60
2022-09-14T06:48:00.166Z,981.56
2022-09-14T06:49:00.199Z,981.57
2022-09-14T06:50:00.198Z,981.55
2022-09-14T06:51:00.146Z,981.57
2022-09-14T06:52:00.159Z,981.53
2022-09-14T06:53:00.162Z,981.55
2022-09-14T06:54:00.255Z,981.58
2022-09-14T06:55:00.125Z,981.53
2022-09-14T06:56:00.177Z,981.58
2022-09-14T06:57:00.139Z,981.55
2022-09-14T06:58:00.135Z,981.51
2022-09-14T06:59:00.091Z,981.56
2022-09-14T07:00:00.215Z,981.57
2022-09-14T07:01:00.113Z,981.56
2022-09-14T07:02:00.088Z,981.56
2022-09-14T07:03:00.153Z,981.52
2022-09-14T07:04:00.100Z,981.58
2022-09-14T07:05:00.086Z,981.56
2022-09-14T07:06:00.087Z,981.59
2022-09-14T07:07:00.066Z,981.58
2022-09-14T07:08:00.075Z,981.58
2022-09-14T07:09:00.067Z,981.58
2022-09-14T07:10:00.044Z,981.61
2022-09-14T07:11:00.040Z,981.61
2022-09-14T07:12:00.026Z,981.59
2022-09-14T07:13:00.018Z,981.64
2022-09-14T07:14:00.033Z,981.61
2022-09-14T07:15:00.063Z,981.62
2022-09-14T07:16:00.031Z,981.65
2022-09-14T07:17:00.044Z,981.64
2022-09-14T07:17:59.986Z,981.62
2022-09-14T07:19:00.028Z,981.65
2022-09-14T07:19:59.975Z,981.63
2022-09-14T07:21:04.804Z,981.65
2022-09-14T07:22:00.003Z,981.60
2022-09-14T07:22:59.960Z,981.61
2022-09-14T07:24:00.007Z,981.57
2022-09-14T07:24:59.950Z,981.58
2022-09-14T07:25:59.950Z,981.60
2022-09-14T07:26:59.931Z,981.58
2022-09-14T07:27:59.982Z,981.64
2022-09-14T07:28:59.986Z,981.61
2022-09-14T07:29:59.942Z,981.64
2022-09-14T07:30:59.968Z,981.63
2022-09-14T07:31:59.928Z,981.66
2022-09-14T07:32:59.962Z,981.66
2022-09-14T07:33:59.921Z,981.67
2022-09-14T07:34:59.911Z,981.64
2022-09-14T07:35:59.947Z,981.64
2022-09-14T07:36:59.884Z,981.61
2022-09-14T07:37:59.886Z,981.62
2022-09-14T07:38:59.878Z,981.61
2022-09-14T07:39:59.894Z,981.65
2022-09-14T07:40:59.865Z,981.66
2022-09-14T07:41:59.890Z,981.66
2022-09-14T07:42:59.869Z,981.67
2022-09-14T07:43:59.872Z,981.65
2022-09-14T07:44:59.851Z,981.64
2022-09-14T07:45:59.892Z,981.65
2022-09-14T07:46:59.848Z,981.65
2022-09-14T07:47:59.864Z,981.62
2022-09-14T07:48:59.821Z,981.62
2022-09-14T07:49:59.811Z,981.63
2022-09-14T07:50:59.801Z,981.62
2022-09-14T07:52:00.100Z,981.65
2022-09-14T07:52:59.814Z,981.66
2022-09-14T07:53:59.811Z,981.60
2022-09-14T07:54:59.776Z,981.62
2022-09-14T07:55:59.770Z,981.59
2022-09-14T07:56:59.770Z,981.62
2022-09-14T07:57:59.800Z,981.63
2022-09-14T07:59:11.916Z,981.61
2022-09-14T07:59:59.773Z,981.63
2022-09-14T08:00:59.810Z,981.59
2022-09-14T08:01:59.868Z,981.57
2022-09-14T08:02:59.731Z,981.55
2022-09-14T08:04:03.382Z,981.55
2022-09-14T08:04:59.732Z,981.56
2022-09-14T08:05:59.719Z,981.58
2022-09-14T08:06:59.738Z,981.55
2022-09-14T08:07:59.695Z,981.56
2022-09-14T08:08:59.729Z,981.53
2022-09-14T08:09:59.708Z,981.54
2022-09-14T08:10:59.741Z,981.54
2022-09-14T08:11:59.672Z,981.56
2022-09-14T08:12:59.697Z,981.56
2022-09-14T08:13:59.683Z,981.54
2022-09-14T08:14:59.673Z,981.55
2022-09-14T08:15:59.676Z,981.51
2022-09-14T08:16:59.726Z,981.57
2022-09-14T08:17:59.842Z,981.56
2022-09-14T08:18:59.645Z,981.54
2022-09-14T08:19:59.666Z,981.54
2022-09-14T08:20:59.640Z,981.56
2022-09-14T08:21:59.619Z,981.54
2022-09-14T08:22:59.625Z,981.55
2022-09-14T08:23:59.617Z,981.54
2022-09-14T08:24:59.615Z,981.52
2022-09-14T08:25:59.589Z,981.54
2022-09-14T08:26:59.651Z,981.53
2022-09-14T08:27:59.626Z,981.52
2022-09-14T08:28:59.577Z,981.52
2022-09-14T08:29:59.652Z,981.50
2022-09-14T08:30:59.571Z,981.51
2022-09-14T08:31:59.596Z,981.54
2022-09-14T08:33:01.866Z,981.49
2022-09-14T08:33:59.574Z,981.47
2022-09-14T08:34:59.531Z,981.48
2022-09-14T08:35:59.676Z,981.49
2022-09-14T08:36:59.542Z,981.48
2022-09-14T08:37:59.553Z,981.48
2022-09-14T08:38:59.524Z,981.45
2022-09-14T08:39:59.667Z,981.47
2022-09-14T08:40:59.551Z,981.43
2022-09-14T08:41:59.515Z,981.44
2022-09-14T08:42:59.491Z,981.38
2022-09-14T08:43:59.479Z,981.40
2022-09-14T08:44:59.506Z,981.38
2022-09-14T08:45:59.609Z,981.40
2022-09-14T08:46:59.467Z,981.43
2022-09-14T08:47:59.462Z,981.40
2022-09-14T08:48:59.472Z,981.41
2022-09-14T08:49:59.446Z,981.42
2022-09-14T08:50:59.441Z,981.43
2022-09-14T08:51:59.539Z,981.40
2022-09-14T08:52:59.429Z,981.43
2022-09-14T08:53:59.434Z,981.42
2022-09-14T08:54:59.431Z,981.48
2022-09-14T08:55:59.515Z,981.41
2022-09-14T08:56:59.424Z,981.41
2022-09-14T08:57:59.392Z,981.43
2022-09-14T08:58:59.391Z,981.39
2022-09-14T08:59:59.441Z,981.40
2022-09-14T09:00:59.464Z,981.39
2022-09-14T09:01:59.410Z,981.42
2022-09-14T09:02:59.392Z,981.42
2022-09-14T09:03:59.441Z,981.42
2022-09-14T09:04:59.358Z,981.43
2022-09-14T09:05:59.348Z,981.41
2022-09-14T09:06:59.369Z,981.38
2022-09-14T09:07:59.359Z,981.42
2022-09-14T09:08:59.370Z,981.40
2022-09-14T09:09:59.359Z,981.38
2022-09-14T09:10:59.347Z,981.37
2022-09-14T09:11:59.312Z,981.40
2022-09-14T09:12:59.306Z,981.40
2022-09-14T09:13:59.310Z,981.42
2022-09-14T09:14:59.294Z,981.41
2022-09-14T09:15:59.491Z,981.40
2022-09-14T09:16:59.300Z,981.38
2022-09-14T09:17:59.285Z,981.40
2022-09-14T09:18:59.270Z,981.36
2022-09-14T09:19:59.263Z,981.38
2022-09-14T09:20:59.291Z,981.36
2022-09-14T09:21:59.266Z,981.36
2022-09-14T09:22:59.266Z,981.32
2022-09-14T09:23:59.354Z,981.32
2022-09-14T09:24:59.233Z,981.29
2022-09-14T09:25:59.236Z,981.29
2022-09-14T09:26:59.222Z,981.29
2022-09-14T09:27:59.223Z,981.30
2022-09-14T09:28:59.235Z,981.31
2022-09-14T09:29:59.214Z,981.30
2022-09-14T09:30:59.290Z,981.27
2022-09-14T09:31:59.300Z,981.26
2022-09-14T09:32:59.196Z,981.24
2022-09-14T09:33:59.309Z,981.19
2022-09-14T09:34:59.301Z,981.19
2022-09-14T09:35:59.183Z,981.19
2022-09-14T09:36:59.178Z,981.22
2022-09-14T09:37:59.173Z,981.22
2022-09-14T09:39:02.966Z,981.17
2022-09-14T09:39:59.246Z,981.18
2022-09-14T09:40:59.136Z,981.16
2022-09-14T09:41:59.137Z,981.17
2022-09-14T09:42:59.131Z,981.19
2022-09-14T09:43:59.104Z,981.21
2022-09-14T09:45:02.502Z,981.21
2022-09-14T09:45:59.129Z,981.27
2022-09-14T09:46:59.159Z,981.23
2022-09-14T09:47:59.107Z,981.25
2022-09-14T09:48:59.097Z,981.29
2022-09-14T09:49:59.077Z,981.29
2022-09-14T09:50:59.068Z,981.30
2022-09-14T09:51:59.064Z,981.29
2022-09-14T09:53:02.130Z,981.29
2022-09-14T09:53:59.059Z,981.31
2022-09-14T09:54:59.114Z,981.29
2022-09-14T09:55:59.062Z,981.31
2022-09-14T09:56:59.045Z,981.31
2022-09-14T09:57:59.022Z,981.29
2022-09-14T09:58:59.018Z,981.28
2022-09-14T09:59:59.029Z,981.25
2022-09-14T10:00:59.073Z,981.26
2022-09-14T10:01:59.057Z,981.24
2022-09-14T10:02:59.020Z,981.27
2022-09-14T10:03:58.997Z,981.26
2022-09-14T10:04:59.000Z,981.27
2022-09-14T10:05:58.975Z,981.25
2022-09-14T10:06:58.989Z,981.27
2022-09-14T10:07:58.990Z,981.28
2022-09-14T10:08:59.346Z,981.30
2022-09-14T10:09:59.140Z,981.30
2022-09-14T10:10:59.361Z,981.30
2022-09-14T10:11:59.221Z,981.33
2022-09-14T10:12:59.384Z,981.27
2022-09-14T10:13:59.311Z,981.24
2022-09-14T10:14:58.933Z,981.25
2022-09-14T10:15:59.038Z,981.22
2022-09-14T10:16:58.933Z,981.22
2022-09-14T10:17:58.933Z,981.16
2022-09-14T10:18:58.908Z,981.18
2022-09-14T10:19:58.922Z,981.20
2022-09-14T10:20:58.905Z,981.21
2022-09-14T10:21:58.881Z,981.23
2022-09-14T10:22:58.884Z,981.23
2022-09-14T10:23:59.128Z,981.27
2022-09-14T10:24:59.167Z,981.21
2022-09-14T10:25:58.869Z,981.21
2022-09-14T10:26:58.869Z,981.18
2022-09-14T10:27:58.878Z,981.17
2022-09-14T10:28:58.856Z,981.13
2022-09-14T10:29:58.846Z,981.14
2022-09-14T10:30:58.914Z,981.10
2022-09-14T10:31:58.839Z,981.10
2022-09-14T10:32:58.859Z,981.09
2022-09-14T10:33:58.857Z,981.07
2022-09-14T10:34:58.824Z,981.11
2022-09-14T10:35:58.820Z,981.11
2022-09-14T10:36:58.802Z,981.10
2022-09-14T10:37:58.803Z,981.10
2022-09-14T10:38:58.795Z,981.15
2022-09-14T10:39:58.862Z,981.13
2022-09-14T10:40:58.788Z,981.13
2022-09-14T10:41:58.774Z,981.12
2022-09-14T10:42:58.799Z,981.11
2022-09-14T10:43:58.805Z,981.08
2022-09-14T10:44:58.774Z,981.10
2022-09-14T10:45:58.843Z,981.11
2022-09-14T10:47:03.896Z,981.09
2022-09-14T10:47:58.751Z,981.09
2022-09-14T10:48:58.742Z,981.09
2022-09-14T10:49:58.730Z,981.11
2022-09-14T10:50:58.768Z,981.11
2022-09-14T10:51:58.721Z,981.10
2022-09-14T10:52:58.945Z,981.14
2022-09-14T10:53:58.713Z,981.14
2022-09-14T10:54:58.705Z,981.12
2022-09-14T10:55:58.701Z,981.11
2022-09-14T10:56:58.718Z,981.07
2022-09-14T10:57:58.693Z,981.07
2022-09-14T10:58:58.685Z,981.05
2022-09-14T10:59:58.830Z,981.03
2022-09-14T11:00:58.697Z,981.02
2022-09-14T11:01:58.797Z,981.01
2022-09-14T11:02:58.736Z,981.00
2022-09-14T11:03:58.670Z,981.00
2022-09-14T11:04:58.694Z,981.00
2022-09-14T11:05:58.661Z,981.03
2022-09-14T11:06:58.638Z,981.01
2022-09-14T11:07:58.672Z,980.99
2022-09-14T11:08:58.653Z,981.03
2022-09-14T11:09:58.613Z,981.01
2022-09-14T11:10:58.653Z,981.02
2022-09-14T11:11:58.601Z,981.01
2022-09-14T11:12:58.622Z,981.02
2022-09-14T11:13:58.616Z,980.98
2022-09-14T11:14:58.624Z,980.97
2022-09-14T11:15:58.723Z,980.98
2022-09-14T11:16:58.571Z,980.94
2022-09-14T11:17:58.612Z,980.92
2022-09-14T11:18:58.580Z,980.88
2022-09-14T11:19:58.574Z,980.87
2022-09-14T11:20:58.561Z,980.90
2022-09-14T11:21:58.541Z,980.86
2022-09-14T11:22:58.534Z,980.83
2022-09-14T11:23:58.552Z,980.79
2022-09-14T11:24:58.525Z,980.77
2022-09-14T11:25:58.516Z,980.77
2022-09-14T11:26:58.534Z,980.74
2022-09-14T11:27:58.527Z,980.70
2022-09-14T11:28:58.603Z,980.67
2022-09-14T11:29:58.838Z,980.65
2022-09-14T11:30:58.626Z,980.68
2022-09-14T11:32:19.193Z,980.69
2022-09-14T11:32:58.504Z,980.71
2022-09-14T11:33:58.498Z,980.66
2022-09-14T11:34:58.803Z,980.62
2022-09-14T11:35:58.760Z,980.65
2022-09-14T11:36:58.838Z,980.59
2022-09-14T11:37:58.771Z,980.57
2022-09-14T11:38:58.450Z,980.57
2022-09-14T11:39:58.495Z,980.55
2022-09-14T11:40:58.425Z,980.59
2022-09-14T11:41:58.429Z,980.52
2022-09-14T11:42:58.513Z,980.55
2022-09-14T11:43:58.417Z,980.53
2022-09-14T11:44:58.400Z,980.58
2022-09-14T11:45:58.515Z,980.60
2022-09-14T11:47:00.826Z,980.58
2022-09-14T11:47:58.430Z,980.62
2022-09-14T11:48:58.686Z,980.62
2022-09-14T11:49:58.400Z,980.63
2022-09-14T11:50:58.399Z,980.61
2022-09-14T11:51:58.363Z,980.60
2022-09-14T11:52:58.387Z,980.58
2022-09-14T11:53:58.381Z,980.56
2022-09-14T11:54:58.378Z,980.54
2022-09-14T11:55:58.363Z,980.52
2022-09-14T11:56:58.353Z,980.53
2022-09-14T11:57:58.345Z,980.52
2022-09-14T11:58:58.327Z,980.55
2022-09-14T11:59:58.361Z,980.53
2022-09-14T12:00:58.321Z,980.48
2022-09-14T12:01:58.340Z,980.44
2022-09-14T12:02:58.391Z,980.46
2022-09-14T12:03:58.598Z,980.46
2022-09-14T12:04:58.314Z,980.44
2022-09-14T12:05:58.318Z,980.43
2022-09-14T12:06:58.313Z,980.42
2022-09-14T12:07:58.291Z,980.44
2022-09-14T12:08:58.279Z,980.42
2022-09-14T12:09:58.284Z,980.40
2022-09-14T12:10:58.263Z,980.42
2022-09-14T12:11:58.264Z,980.42
2022-09-14T12:12:58.248Z,980.47
2022-09-14T12:13:58.254Z,980.47
2022-09-14T12:14:58.280Z,980.43
2022-09-14T12:15:58.510Z,980.46
2022-09-14T12:16:58.246Z,980.45
2022-09-14T12:17:58.238Z,980.41
2022-09-14T12:18:58.230Z,980.45
2022-09-14T12:19:58.346Z,980.44
2022-09-14T12:20:58.218Z,980.47
2022-09-14T12:21:58.244Z,980.45
2022-09-14T12:22:58.207Z,980.50
2022-09-14T12:23:58.217Z,980.46
2022-09-14T12:24:58.202Z,980.46
2022-09-14T12:25:58.191Z,980.41
2022-09-14T12:26:58.431Z,980.42
2022-09-14T12:27:58.187Z,980.40